Time;durP1;ratioP1;P1;durP2;ratioP2;P2;SDS_P1;SDS_P2;PMS_P1;PMS_P2;Temp;Humidity;BMP_temperature;BMP_pressure;BME280_temperature;BME280_humidity;BME280_pressure;Samples;Min_cycle;Max_cycle;Signal;HPM_P1;HPM_P2
2022/09/10 00:01:31;;;;;;;15.10;6.38;;;;;;;24.42;58.75;100868.91;5067450;28;20063;-72
2022/09/10 00:03:57;;;;;;;12.90;6.47;;;;;;;24.46;58.70;100870.44;5054312;28;20029;-72
2022/09/10 00:06:26;;;;;;;10.65;6.18;;;;;;;24.81;55.46;100879.69;5052719;28;20064;-71
2022/09/10 00:08:53;;;;;;;13.35;6.53;;;;;;;23.80;62.68;100872.97;5052992;28;20472;-72
2022/09/10 00:11:19;;;;;;;10.70;5.72;;;;;;;24.02;59.45;100867.09;5052164;28;20485;-72
2022/09/10 00:13:45;;;;;;;9.40;5.20;;;;;;;24.59;57.96;100869.59;5070379;28;20024;-71
2022/09/10 00:16:13;;;;;;;8.88;4.55;;;;;;;24.51;60.28;100868.31;5050720;28;20013;-72
2022/09/10 00:18:40;;;;;;;6.22;4.53;;;;;;;23.45;64.38;100868.13;5066637;28;20508;-72
2022/09/10 00:21:09;;;;;;;9.93;4.60;;;;;;;24.51;57.60;100873.66;5066178;28;20028;-72
2022/09/10 00:23:35;;;;;;;9.32;3.90;;;;;;;24.93;55.17;100869.97;5071415;28;20028;-72
2022/09/10 00:26:09;;;;;;;5.75;3.60;;;;;;;24.41;57.42;100867.19;5071477;28;20112;-72
2022/09/10 00:28:35;;;;;;;6.07;2.70;;;;;;;25.31;54.48;100861.88;5068470;28;20460;-71
2022/09/10 00:31:02;;;;;;;5.68;2.55;;;;;;;24.67;54.98;100862.78;5069131;28;20119;-72
2022/09/10 00:33:28;;;;;;;5.68;2.00;;;;;;;23.14;60.33;100864.69;5070255;28;20033;-72
2022/09/10 00:35:56;;;;;;;3.33;1.75;;;;;;;22.96;62.69;100871.16;5070729;28;20031;-72
2022/09/10 00:38:22;;;;;;;3.22;1.63;;;;;;;23.33;63.07;100859.06;5053629;28;20035;-72
2022/09/10 00:40:48;;;;;;;5.20;1.77;;;;;;;24.53;57.31;100858.34;5062170;28;20119;-73
2022/09/10 00:43:19;;;;;;;5.05;1.65;;;;;;;24.71;54.66;100863.44;5033879;28;20039;-73
2022/09/10 00:45:51;;;;;;;5.47;1.60;;;;;;;24.13;57.35;100855.72;5051229;28;20470;-72
2022/09/10 00:48:21;;;;;;;5.20;1.55;;;;;;;24.41;55.63;100861.00;5051002;28;20288;-72
2022/09/10 00:50:50;;;;;;;2.80;1.30;;;;;;;24.09;56.86;100854.22;5058957;28;20090;-72
2022/09/10 00:53:20;;;;;;;3.47;1.30;;;;;;;24.79;54.38;100855.72;5053037;28;20075;-72
2022/09/10 00:55:49;;;;;;;4.00;1.55;;;;;;;24.64;53.58;100862.16;5068722;28;20048;-72
2022/09/10 00:58:17;;;;;;;5.03;1.80;;;;;;;23.81;58.13;100861.34;5071145;28;20028;-72
2022/09/10 01:00:43;;;;;;;5.50;2.10;;;;;;;24.28;55.69;100858.34;5068858;28;20028;-72
2022/09/10 01:03:10;;;;;;;2.25;1.95;;;;;;;23.02;62.69;100860.09;5068861;28;20032;-72
2022/09/10 01:05:37;;;;;;;4.70;2.45;;;;;;;23.27;62.42;100859.44;5053000;28;20464;-72
2022/09/10 01:08:03;;;;;;;4.50;2.53;;;;;;;23.43;59.97;100853.16;5046670;28;20028;-72
2022/09/10 01:10:37;;;;;;;5.82;3.10;;;;;;;23.73;60.61;100855.66;5052643;28;20498;-72
2022/09/10 01:13:24;;;;;;;3.88;2.80;;;;;;;23.57;60.48;100844.28;5060311;28;20104;-72
2022/09/10 01:16:22;;;;;;;5.88;3.42;;;;;;;23.71;61.74;100847.75;5050805;28;20036;-72
2022/09/10 01:19:10;;;;;;;8.63;3.90;;;;;;;23.63;60.95;100843.84;5052742;28;20036;-72
2022/09/10 01:22:05;;;;;;;7.45;4.75;;;;;;;24.39;58.50;100853.13;5058643;28;20021;-73
2022/09/10 01:24:42;;;;;;;7.53;4.38;;;;;;;23.91;58.62;100844.78;5038221;28;20033;-72
2022/09/10 01:27:26;;;;;;;8.02;4.38;;;;;;;23.83;58.73;100854.09;5071959;28;20496;-72
2022/09/10 01:30:04;;;;;;;7.70;4.57;;;;;;;24.44;57.41;100851.00;5071480;28;20051;-72
2022/09/10 01:32:48;;;;;;;14.45;5.05;;;;;;;23.36;61.51;100858.03;5061255;28;20040;-72
2022/09/10 01:35:17;;;;;;;9.02;5.63;;;;;;;24.78;55.11;100854.00;5074682;28;20028;-72
2022/09/10 01:37:53;;;;;;;11.45;5.32;;;;;;;25.45;52.33;100842.19;5074306;28;20041;-72
2022/09/10 01:40:23;;;;;;;7.55;5.30;;;;;;;24.83;54.13;100845.69;5071429;28;20028;-73
2022/09/10 01:42:49;;;;;;;10.75;6.05;;;;;;;23.86;58.22;100845.03;5070209;28;20106;-72
2022/09/10 01:45:15;;;;;;;10.35;5.78;;;;;;;23.94;58.83;100847.22;5061721;28;20035;-72
2022/09/10 01:48:05;;;;;;;17.23;6.72;;;;;;;23.67;63.29;100842.69;5053696;28;20132;-73
2022/09/10 01:50:30;;;;;;;12.60;6.28;;;;;;;23.76;61.42;100847.44;5054994;28;20124;-72
2022/09/10 01:53:01;;;;;;;11.70;6.65;;;;;;;22.57;67.88;100845.97;5058945;28;20099;-73
2022/09/10 01:55:40;;;;;;;13.93;6.72;;;;;;;24.55;60.19;100840.41;5053967;28;20025;-73
2022/09/10 01:58:11;;;;;;;14.77;6.78;;;;;;;24.46;58.91;100848.22;5035925;28;20040;-74
2022/09/10 02:00:45;;;;;;;13.90;6.50;;;;;;;24.03;61.63;100838.63;5049797;28;20035;-73
2022/09/10 02:03:16;;;;;;;15.70;6.70;;;;;;;23.40;66.49;100840.88;5072609;28;20534;-74
2022/09/10 02:05:44;;;;;;;15.52;7.40;;;;;;;23.16;69.29;100846.81;5048532;28;20021;-73
2022/09/10 02:08:19;;;;;;;12.70;8.23;;;;;;;23.95;64.77;100847.13;5053283;28;20535;-74
2022/09/10 02:10:58;;;;;;;16.58;8.93;;;;;;;23.84;66.88;100839.78;5039469;28;20017;-74
2022/09/10 02:13:26;;;;;;;19.08;8.98;;;;;;;23.71;64.82;100847.75;5072353;28;20404;-74
2022/09/10 02:15:52;;;;;;;17.77;9.73;;;;;;;24.09;61.92;100846.19;5072014;28;20020;-73
2022/09/10 02:18:19;;;;;;;16.38;10.40;;;;;;;24.33;63.32;100837.50;5073652;28;20038;-73
2022/09/10 02:20:46;;;;;;;19.98;8.98;;;;;;;24.07;60.26;100841.91;5070959;28;20064;-73
2022/09/10 02:23:17;;;;;;;13.77;7.70;;;;;;;23.88;66.25;100840.50;5048137;28;20377;-74
2022/09/10 02:25:42;;;;;;;14.18;6.80;;;;;;;24.28;61.75;100842.31;5067737;28;20465;-73
2022/09/10 02:28:09;;;;;;;13.07;7.00;;;;;;;24.79;59.70;100831.69;5043817;28;20028;-72
2022/09/10 02:30:34;;;;;;;10.27;6.35;;;;;;;25.09;57.63;100837.63;5052545;28;20020;-73
2022/09/10 02:33:00;;;;;;;12.82;7.03;;;;;;;24.01;60.84;100832.50;5053270;28;20021;-72
2022/09/10 02:35:25;;;;;;;10.38;5.95;;;;;;;24.35;61.18;100831.09;5065842;28;20021;-72
2022/09/10 02:37:50;;;;;;;11.10;6.10;;;;;;;23.90;61.52;100821.69;5073182;28;20103;-72
2022/09/10 02:40:18;;;;;;;11.23;6.38;;;;;;;23.34;68.03;100827.91;5071475;28;20226;-73
2022/09/10 02:42:45;;;;;;;10.82;5.60;;;;;;;24.56;60.36;100826.09;5053042;28;20115;-72
2022/09/10 02:45:13;;;;;;;12.27;6.70;;;;;;;24.85;58.08;100828.59;5070850;28;20024;-72
2022/09/10 02:47:39;;;;;;;15.93;6.65;;;;;;;24.94;58.16;100823.56;5037213;28;20087;-73
2022/09/10 02:50:06;;;;;;;12.95;8.55;;;;;;;24.24;61.28;100822.97;5072219;28;20066;-72
2022/09/10 02:52:32;;;;;;;12.48;7.55;;;;;;;23.15;66.58;100822.91;5060133;28;20021;-72
2022/09/10 02:54:58;;;;;;;16.45;8.30;;;;;;;24.01;62.12;100822.69;5052502;28;20497;-72
2022/09/10 02:57:24;;;;;;;13.35;8.40;;;;;;;23.62;64.26;100832.34;5046688;28;20472;-71
2022/09/10 02:59:50;;;;;;;13.07;8.95;;;;;;;24.42;60.70;100820.84;5071547;28;20036;-72
2022/09/10 03:02:15;;;;;;;16.45;10.00;;;;;;;24.77;59.09;100825.59;5054146;28;20461;-72
2022/09/10 03:04:41;;;;;;;21.27;10.95;;;;;;;25.22;58.18;100823.28;5054725;28;20036;-72
2022/09/10 03:07:06;;;;;;;17.20;12.30;;;;;;;24.37;61.31;100828.31;5057041;28;20071;-72
2022/09/10 03:09:31;;;;;;;16.23;11.20;;;;;;;23.91;67.09;100826.09;5064673;28;20115;-72
2022/09/10 03:11:58;;;;;;;14.93;11.38;;;;;;;24.61;59.86;100825.81;5053722;28;20029;-72
2022/09/10 03:14:24;;;;;;;19.10;12.00;;;;;;;24.29;64.30;100817.28;5034582;28;20079;-72
2022/09/10 03:16:50;;;;;;;22.38;10.85;;;;;;;24.37;60.41;100809.59;5051702;28;20029;-72
2022/09/10 03:19:16;;;;;;;15.20;10.20;;;;;;;24.68;60.56;100811.03;5035728;28;20020;-72
2022/09/10 03:21:41;;;;;;;17.00;9.98;;;;;;;24.09;65.21;100813.31;5064885;28;20082;-72
2022/09/10 03:24:07;;;;;;;20.63;9.02;;;;;;;23.71;65.92;100806.84;5053513;28;20020;-72
2022/09/10 03:26:32;;;;;;;16.48;8.98;;;;;;;24.28;63.99;100818.28;5036588;28;20029;-72
2022/09/10 03:28:58;;;;;;;19.02;7.97;;;;;;;24.70;60.71;100813.59;5066814;28;20125;-72
2022/09/10 03:31:25;;;;;;;13.15;7.13;;;;;;;24.50;62.25;100813.16;5041149;28;20024;-72
2022/09/10 03:33:51;;;;;;;12.60;7.30;;;;;;;24.55;60.92;100821.72;5034267;28;20120;-72
2022/09/10 03:36:17;;;;;;;11.70;6.72;;;;;;;25.07;57.57;100821.69;5052237;28;20444;-72
2022/09/10 03:38:43;;;;;;;13.65;6.70;;;;;;;23.59;62.29;100821.00;5041541;28;20069;-73
2022/09/10 03:41:09;;;;;;;10.38;6.47;;;;;;;25.12;57.53;100819.56;5051984;28;20032;-72
2022/09/10 03:43:34;;;;;;;11.98;6.13;;;;;;;24.80;57.18;100819.16;5070208;28;20050;-72
2022/09/10 03:46:01;;;;;;;15.35;6.90;;;;;;;25.29;56.05;100812.13;5071140;28;20021;-72
2022/09/10 03:48:27;;;;;;;14.15;6.82;;;;;;;25.16;56.81;100817.53;5066150;28;20040;-71
2022/09/10 03:50:53;;;;;;;11.02;4.80;;;;;;;24.70;58.30;100813.59;5044075;28;20032;-72
2022/09/10 03:53:19;;;;;;;9.93;5.65;;;;;;;24.72;59.07;100819.72;5064053;28;20032;-72
2022/09/10 03:55:45;;;;;;;13.18;4.25;;;;;;;24.03;63.11;100826.13;5070959;28;20020;-72
2022/09/10 03:58:11;;;;;;;11.27;3.50;;;;;;;23.72;65.19;100812.09;5056877;28;20024;-72
2022/09/10 04:00:36;;;;;;;15.00;4.03;;;;;;;24.37;62.07;100812.28;5057650;28;20028;-72
2022/09/10 04:03:02;;;;;;;6.30;2.95;;;;;;;24.01;64.96;100821.84;5067654;28;20488;-72
2022/09/10 04:05:28;;;;;;;9.32;3.53;;;;;;;24.17;61.47;100819.84;5033022;28;20416;-72
2022/09/10 04:07:57;;;;;;;5.65;3.15;;;;;;;25.21;57.09;100818.91;5033232;28;20021;-72
2022/09/10 04:10:25;;;;;;;10.90;2.80;;;;;;;25.18;56.57;100813.78;5041166;28;20083;-72
2022/09/10 04:12:52;;;;;;;10.98;3.67;;;;;;;24.83;58.42;100822.47;5068099;28;20033;-72
2022/09/10 04:15:18;;;;;;;9.02;3.33;;;;;;;25.65;53.69;100822.00;5051900;28;20031;-72
2022/09/10 04:17:45;;;;;;;12.13;3.65;;;;;;;25.04;56.61;100827.28;5071856;28;20024;-72
2022/09/10 04:20:11;;;;;;;11.77;4.13;;;;;;;24.53;59.55;100825.44;5070577;28;20075;-72
2022/09/10 04:22:36;;;;;;;9.82;3.25;;;;;;;25.20;56.53;100814.50;5063906;28;20553;-72
2022/09/10 04:25:02;;;;;;;9.60;3.30;;;;;;;24.55;58.05;100821.72;5059481;28;20028;-72
2022/09/10 04:27:27;;;;;;;12.32;4.00;;;;;;;25.22;56.33;100823.28;5068842;28;20420;-72
2022/09/10 04:29:53;;;;;;;10.90;2.75;;;;;;;24.83;57.83;100827.81;5069952;28;20067;-72
2022/09/10 04:32:18;;;;;;;9.35;3.55;;;;;;;24.58;58.78;100831.34;5049321;28;20052;-72
2022/09/10 04:34:44;;;;;;;6.93;3.00;;;;;;;23.99;60.43;100831.78;5037023;28;20024;-72
2022/09/10 04:37:10;;;;;;;12.15;3.28;;;;;;;25.28;57.13;100823.78;5045749;28;20024;-71
2022/09/10 04:39:35;;;;;;;13.00;3.72;;;;;;;25.71;55.03;100826.88;5071454;28;20021;-73
2022/09/10 04:42:01;;;;;;;9.95;3.33;;;;;;;25.49;55.06;100832.97;5047943;28;20021;-72
2022/09/10 04:44:28;;;;;;;10.45;2.97;;;;;;;26.17;52.44;100833.34;5053239;28;20480;-72
2022/09/10 04:46:54;;;;;;;9.77;3.15;;;;;;;25.46;53.97;100837.69;5070043;28;20028;-72
2022/09/10 04:49:19;;;;;;;10.43;3.63;;;;;;;25.59;53.28;100832.31;5052595;28;20041;-72
2022/09/10 04:51:45;;;;;;;5.68;3.03;;;;;;;25.46;53.86;100838.56;5071410;28;20039;-72
2022/09/10 04:54:13;;;;;;;8.65;3.22;;;;;;;26.30;50.94;100838.59;5041949;28;20025;-72
2022/09/10 04:56:38;;;;;;;10.57;3.60;;;;;;;26.79;49.23;100836.66;5054241;28;20033;-72
2022/09/10 04:59:04;;;;;;;9.10;4.15;;;;;;;26.70;49.15;100840.91;5072922;28;20031;-72
2022/09/10 05:01:30;;;;;;;9.32;3.20;;;;;;;26.21;50.42;100840.19;5055847;28;20533;-72
2022/09/10 05:03:55;;;;;;;9.25;4.25;;;;;;;25.91;50.48;100838.81;5054926;28;20054;-72
2022/09/10 05:06:22;;;;;;;6.80;3.97;;;;;;;25.98;51.98;100838.31;5056214;28;20033;-72
2022/09/10 05:08:47;;;;;;;7.45;4.07;;;;;;;26.22;50.63;100844.53;5038562;28;20029;-72
2022/09/10 05:11:13;;;;;;;13.75;6.00;;;;;;;25.68;53.13;100842.34;5036461;28;20032;-72
2022/09/10 05:13:38;;;;;;;8.07;3.97;;;;;;;26.58;49.56;100844.50;5036585;28;20064;-72
2022/09/10 05:16:03;;;;;;;13.52;4.93;;;;;;;26.38;49.41;100851.44;5053593;28;20048;-72
2022/09/10 05:18:29;;;;;;;9.70;4.53;;;;;;;25.74;52.78;100842.72;5043275;28;20055;-72
2022/09/10 05:20:54;;;;;;;16.00;4.75;;;;;;;26.98;48.50;100846.75;5056607;28;20472;-72
2022/09/10 05:23:19;;;;;;;16.80;4.85;;;;;;;26.56;49.82;100846.47;5056840;28;20111;-72
2022/09/10 05:25:46;;;;;;;8.50;4.85;;;;;;;26.98;48.17;100838.72;5045982;28;20025;-72
2022/09/10 05:28:12;;;;;;;16.02;4.88;;;;;;;26.87;48.49;100842.28;5036216;28;20128;-72
2022/09/10 05:30:37;;;;;;;11.30;4.30;;;;;;;27.22;46.60;100851.16;5061865;28;20099;-73
2022/09/10 05:33:02;;;;;;;12.80;4.47;;;;;;;26.90;47.50;100852.75;5050229;28;20465;-72
2022/09/10 05:35:29;;;;;;;7.97;4.10;;;;;;;27.14;46.89;100851.78;5041647;28;20050;-72
2022/09/10 05:38:00;;;;;;;9.50;4.35;;;;;;;27.19;46.54;100856.75;5057833;28;20025;-73
2022/09/10 05:40:27;;;;;;;7.35;4.05;;;;;;;27.40;46.05;100856.91;5063410;28;20082;-72
2022/09/10 05:42:53;;;;;;;9.93;4.38;;;;;;;27.15;46.77;100858.84;5063277;28;20055;-72
2022/09/10 05:45:19;;;;;;;9.75;4.68;;;;;;;27.00;47.36;100862.75;5065717;28;20037;-72
2022/09/10 05:47:45;;;;;;;5.43;3.63;;;;;;;27.32;46.33;100864.69;5062531;28;20048;-72
2022/09/10 05:50:10;;;;;;;9.90;3.85;;;;;;;27.35;46.01;100867.13;5077863;28;20393;-73
2022/09/10 05:52:36;;;;;;;8.00;4.13;;;;;;;27.20;45.97;100864.72;5064872;28;20026;-72
2022/09/10 05:55:01;;;;;;;10.27;4.32;;;;;;;27.31;46.47;100873.72;5094102;28;20020;-72
2022/09/10 05:57:27;;;;;;;10.88;5.03;;;;;;;27.29;46.61;100873.84;5065712;28;20479;-72
2022/09/10 05:59:52;;;;;;;9.70;4.55;;;;;;;27.43;46.78;100875.44;5092612;28;20153;-72
2022/09/10 06:02:18;;;;;;;9.75;5.35;;;;;;;27.62;45.75;100871.28;5068656;28;20028;-72
2022/09/10 06:04:44;;;;;;;12.07;4.95;;;;;;;27.52;46.54;100884.56;5057232;28;20400;-72
2022/09/10 06:07:09;;;;;;;10.88;4.40;;;;;;;27.66;46.80;100876.25;5072058;28;20032;-72
2022/09/10 06:09:35;;;;;;;14.10;5.03;;;;;;;26.46;48.98;100880.28;5080929;28;20469;-71
2022/09/10 06:12:01;;;;;;;10.13;4.25;;;;;;;27.39;47.41;100884.72;5075380;28;20028;-71
2022/09/10 06:14:26;;;;;;;9.68;4.43;;;;;;;27.88;46.74;100878.03;5056974;28;20117;-73
2022/09/10 06:16:53;;;;;;;8.80;4.28;;;;;;;27.33;47.84;100875.31;5085954;28;20150;-71
2022/09/10 06:19:21;;;;;;;10.55;5.10;;;;;;;27.72;47.68;100880.25;5072923;28;20038;-71
2022/09/10 06:21:48;;;;;;;12.95;4.72;;;;;;;26.73;49.62;100885.38;5065127;28;20024;-70
2022/09/10 06:24:14;;;;;;;7.28;3.65;;;;;;;26.90;50.50;100876.00;5091533;28;20046;-71
2022/09/10 06:26:40;;;;;;;9.68;4.57;;;;;;;27.26;49.61;100880.31;5074425;28;20024;-72
2022/09/10 06:29:06;;;;;;;9.77;5.28;;;;;;;27.73;47.35;100884.66;5093555;28;20079;-71
2022/09/10 06:31:33;;;;;;;9.32;4.25;;;;;;;27.54;48.93;100890.69;5074119;28;20081;-71
2022/09/10 06:34:00;;;;;;;8.98;3.72;;;;;;;26.83;51.47;100891.75;5080335;28;20039;-72
2022/09/10 06:36:27;;;;;;;8.65;4.82;;;;;;;27.73;48.61;100900.78;5092018;28;20073;-71
2022/09/10 06:38:56;;;;;;;11.52;4.53;;;;;;;27.38;50.01;100899.09;5085228;28;20036;-71
2022/09/10 06:41:23;;;;;;;12.68;5.68;;;;;;;27.03;50.76;100898.22;5074347;28;20031;-71
2022/09/10 06:43:49;;;;;;;7.53;4.30;;;;;;;27.40;51.51;100902.53;5073601;28;20032;-71
2022/09/10 06:46:17;;;;;;;11.90;4.90;;;;;;;26.45;51.66;100911.59;5063681;28;20036;-71
2022/09/10 06:48:43;;;;;;;9.02;3.83;;;;;;;26.41;52.97;100910.97;5054451;28;20057;-71
2022/09/10 06:51:11;;;;;;;7.28;3.40;;;;;;;26.47;54.69;100909.66;5051704;28;20369;-71
2022/09/10 06:53:37;;;;;;;6.60;3.55;;;;;;;27.94;49.83;100911.56;5052782;28;20032;-71
2022/09/10 06:56:04;;;;;;;7.40;3.40;;;;;;;27.63;49.84;100918.59;5051341;28;20027;-71
2022/09/10 06:58:32;;;;;;;6.20;2.80;;;;;;;29.07;46.63;100923.63;5034941;28;20039;-71
2022/09/10 07:00:58;;;;;;;12.80;3.72;;;;;;;27.63;48.80;100934.69;5034217;28;20400;-71
2022/09/10 07:03:23;;;;;;;10.73;3.20;;;;;;;27.26;50.83;100933.97;5052092;28;20032;-71
2022/09/10 07:05:53;;;;;;;5.88;2.35;;;;;;;27.53;49.27;100940.84;5036570;28;20036;-72
2022/09/10 07:08:21;;;;;;;5.18;2.70;;;;;;;24.85;58.47;100940.84;5060902;28;20119;-72
2022/09/10 07:10:47;;;;;;;6.35;2.58;;;;;;;27.12;51.43;100938.69;5052458;28;20028;-72
2022/09/10 07:13:12;;;;;;;5.78;2.40;;;;;;;27.70;48.35;100941.31;5056117;28;20029;-72
2022/09/10 07:15:45;;;;;;;7.60;2.70;;;;;;;27.33;50.72;100936.16;5035208;28;21236;-72
2022/09/10 07:18:15;;;;;;;7.10;2.30;;;;;;;28.03;49.12;100940.41;5060464;28;20037;-72
2022/09/10 07:20:42;;;;;;;11.80;3.05;;;;;;;29.09;46.13;100943.19;5039021;28;20041;-72
2022/09/10 07:23:08;;;;;;;5.50;2.40;;;;;;;29.25;45.78;100940.91;5071883;28;20059;-73
2022/09/10 07:25:33;;;;;;;5.72;2.13;;;;;;;30.18;44.84;100943.44;5048598;28;20059;-72
2022/09/10 07:28:00;;;;;;;4.50;2.65;;;;;;;30.66;42.00;100946.28;5069894;28;20058;-72
2022/09/10 07:30:27;;;;;;;3.45;1.92;;;;;;;30.46;42.33;100951.72;5053713;28;20082;-72
2022/09/10 07:32:53;;;;;;;3.67;1.83;;;;;;;31.20;41.95;100958.28;5036704;28;20075;-72
2022/09/10 07:35:18;;;;;;;6.03;1.50;;;;;;;31.29;41.90;100951.97;5053123;28;20587;-72
2022/09/10 07:37:44;;;;;;;1.83;1.40;;;;;;;31.30;40.73;100961.78;5069761;28;20078;-73
2022/09/10 07:40:10;;;;;;;4.50;1.27;;;;;;;31.35;40.18;100953.22;5072182;28;20028;-72
2022/09/10 07:42:36;;;;;;;5.13;1.55;;;;;;;32.20;39.05;100969.28;5054112;28;20438;-72
2022/09/10 07:45:04;;;;;;;3.63;1.10;;;;;;;31.52;39.25;100965.09;5069392;28;20557;-72
2022/09/10 07:47:30;;;;;;;3.25;1.20;;;;;;;32.31;38.56;100970.91;5066561;28;20072;-72
2022/09/10 07:49:55;;;;;;;4.75;1.63;;;;;;;31.60;37.91;100967.94;5040349;28;20068;-72
2022/09/10 07:52:21;;;;;;;4.10;1.40;;;;;;;33.47;37.88;100964.53;5033306;28;20489;-72
2022/09/10 07:54:46;;;;;;;3.00;1.30;;;;;;;33.37;36.57;100977.31;5051427;28;20377;-72
2022/09/10 07:57:12;;;;;;;3.72;1.30;;;;;;;32.88;36.42;100976.00;5058362;28;20032;-72
2022/09/10 07:59:37;;;;;;;5.65;1.20;;;;;;;34.10;35.55;100990.31;5070326;28;20369;-72
2022/09/10 08:02:03;;;;;;;1.50;1.05;;;;;;;34.02;35.08;100986.72;5071740;28;20107;-72
2022/09/10 08:04:32;;;;;;;4.65;2.13;;;;;;;33.20;35.89;100987.19;5070795;28;20029;-72
2022/09/10 08:06:57;;;;;;;3.97;1.10;;;;;;;32.03;38.18;100983.63;5051055;28;20033;-72
2022/09/10 08:09:24;;;;;;;2.75;1.00;;;;;;;32.12;38.59;100993.50;5033131;28;20021;-72
2022/09/10 08:11:50;;;;;;;3.13;1.10;;;;;;;32.90;36.14;100992.91;5051040;28;20292;-72
2022/09/10 08:14:15;;;;;;;9.98;3.97;;;;;;;31.10;39.46;100997.94;5051734;28;20392;-72
2022/09/10 08:16:40;;;;;;;9.20;6.28;;;;;;;29.90;41.72;101010.59;5066792;28;20040;-72
2022/09/10 08:19:08;;;;;;;15.02;9.27;;;;;;;28.58;44.49;101015.56;5064841;28;20116;-72
2022/09/10 08:21:35;;;;;;;14.02;8.40;;;;;;;28.20;45.40;101026.81;5033006;28;20039;-72
2022/09/10 08:24:01;;;;;;;15.57;9.15;;;;;;;28.45;45.07;101028.31;5032554;28;20027;-72
2022/09/10 08:26:28;;;;;;;16.05;10.10;;;;;;;28.00;47.03;101039.16;5041973;28;20032;-72
2022/09/10 08:28:56;;;;;;;16.38;11.32;;;;;;;26.72;49.23;101047.19;5036109;28;20414;-72
2022/09/10 08:31:23;;;;;;;16.27;10.63;;;;;;;26.41;51.62;101061.03;5075775;28;20025;-72
2022/09/10 08:33:50;;;;;;;15.60;11.10;;;;;;;26.76;51.66;101059.41;5074971;28;20025;-72
2022/09/10 08:36:17;;;;;;;20.63;11.32;;;;;;;26.59;50.96;101072.19;5072862;28;20020;-72
2022/09/10 08:38:43;;;;;;;21.27;11.90;;;;;;;26.04;53.89;101081.59;5072008;28;20040;-72
2022/09/10 08:41:12;;;;;;;20.45;13.05;;;;;;;26.04;53.53;101081.59;5050086;28;20396;-72
2022/09/10 08:43:48;;;;;;;22.05;14.35;;;;;;;27.08;50.41;101081.09;5075407;28;20021;-71
2022/09/10 08:46:29;;;;;;;19.33;14.02;;;;;;;26.46;49.89;101084.81;5071982;28;20103;-72
2022/09/10 08:49:21;;;;;;;25.27;14.95;;;;;;;26.80;50.37;101087.69;5070811;28;20176;-72
2022/09/10 08:51:53;;;;;;;20.58;15.63;;;;;;;27.55;48.12;101086.50;5047734;28;20434;-72
2022/09/10 08:54:27;;;;;;;20.90;14.57;;;;;;;27.59;48.29;101093.34;5036669;28;20687;-72
2022/09/10 08:56:58;;;;;;;22.13;14.45;;;;;;;28.36;46.46;101093.59;5043770;28;20485;-73
2022/09/10 08:59:29;;;;;;;17.95;13.52;;;;;;;27.97;46.04;101093.94;5057645;28;20075;-72
2022/09/10 09:02:23;;;;;;;14.73;12.38;;;;;;;27.55;47.16;101089.19;5062655;28;20024;-73
2022/09/10 09:04:57;;;;;;;17.90;13.07;;;;;;;28.58;44.98;101095.38;5037629;28;20455;-72
2022/09/10 09:07:27;;;;;;;14.52;12.25;;;;;;;28.14;45.81;101095.34;5055026;28;20037;-72
2022/09/10 09:09:53;;;;;;;16.80;12.90;;;;;;;28.40;45.71;101105.81;5036218;28;20029;-73
2022/09/10 09:12:49;;;;;;;15.70;12.68;;;;;;;28.10;46.51;101105.47;5054727;28;20036;-74
2022/09/10 09:15:30;;;;;;;16.52;12.02;;;;;;;27.88;45.09;101108.97;5064408;28;20032;-73
2022/09/10 09:18:14;;;;;;;16.17;11.98;;;;;;;28.44;44.61;101107.28;5037456;28;20477;-70
2022/09/10 09:20:45;;;;;;;13.43;12.00;;;;;;;29.00;43.94;101100.03;5054773;28;20021;-72
2022/09/10 09:23:22;;;;;;;18.13;12.17;;;;;;;29.34;42.58;101106.13;5068202;28;20024;-71
2022/09/10 09:26:03;;;;;;;15.30;11.30;;;;;;;29.38;42.90;101110.25;5043071;28;20393;-70
2022/09/10 09:28:40;;;;;;;13.25;9.57;;;;;;;29.53;42.31;101110.78;5072327;28;20103;-70
2022/09/10 09:31:15;;;;;;;10.85;9.20;;;;;;;29.22;42.39;101112.50;5054250;28;20040;-70
2022/09/10 09:33:40;;;;;;;12.38;8.88;;;;;;;29.01;43.02;101125.94;5055086;28;20025;-71
2022/09/10 09:36:07;;;;;;;12.93;10.82;;;;;;;28.69;43.31;101121.41;5060365;28;20035;-70
2022/09/10 09:38:40;;;;;;;17.60;9.90;;;;;;;29.15;43.30;101117.56;5053341;28;20039;-70
2022/09/10 09:41:24;;;;;;;11.32;9.23;;;;;;;28.18;44.96;101123.66;5036345;28;20049;-70
2022/09/10 09:44:10;;;;;;;10.80;8.20;;;;;;;27.92;44.89;101134.63;5053047;28;20043;-70
2022/09/10 09:46:37;;;;;;;10.68;8.55;;;;;;;30.14;41.09;101125.25;5068169;28;20033;-70
2022/09/10 09:49:03;;;;;;;10.98;6.85;;;;;;;30.43;40.63;101140.69;5074251;28;20029;-70
2022/09/10 09:51:34;;;;;;;14.50;6.40;;;;;;;28.47;42.87;101136.59;5070637;28;20162;-70
2022/09/10 09:54:07;;;;;;;8.30;5.88;;;;;;;28.63;43.08;101138.88;5056129;28;20024;-72
2022/09/10 09:56:41;;;;;;;6.20;5.30;;;;;;;29.18;41.41;101144.22;5070375;28;20536;-71
2022/09/10 09:59:10;;;;;;;8.15;5.30;;;;;;;29.45;41.14;101140.19;5070257;28;20028;-70
2022/09/10 10:01:41;;;;;;;5.57;5.05;;;;;;;30.14;39.37;101140.59;5054042;28;20021;-70
2022/09/10 10:04:21;;;;;;;6.13;4.20;;;;;;;29.59;40.00;101139.88;5053917;28;20021;-70
2022/09/10 10:06:54;;;;;;;4.78;4.22;;;;;;;30.44;39.29;101145.13;5048342;28;20024;-70
2022/09/10 10:09:22;;;;;;;4.50;3.83;;;;;;;31.15;36.75;101151.34;5055987;28;20029;-70
2022/09/10 10:11:51;;;;;;;5.60;4.75;;;;;;;30.04;39.33;101148.63;5071465;28;20503;-70
2022/09/10 10:14:20;;;;;;;6.60;3.95;;;;;;;29.92;38.84;101154.13;5072564;28;20070;-70
2022/09/10 10:16:51;;;;;;;8.65;4.40;;;;;;;30.65;38.92;101155.81;5073633;28;20047;-70
2022/09/10 10:19:28;;;;;;;4.70;4.18;;;;;;;30.75;39.46;101145.06;5051628;28;20029;-70
2022/09/10 10:21:54;;;;;;;5.95;4.22;;;;;;;31.44;38.11;101154.03;5058985;28;20043;-70
2022/09/10 10:24:33;;;;;;;5.15;4.57;;;;;;;29.75;40.61;101157.41;5055510;28;20400;-70
2022/09/10 10:26:59;;;;;;;7.63;6.13;;;;;;;29.81;39.89;101162.22;5053387;28;20048;-70
2022/09/10 10:29:26;;;;;;;8.25;6.43;;;;;;;29.97;39.29;101166.34;5066756;28;20543;-73
2022/09/10 10:31:52;;;;;;;8.77;5.85;;;;;;;29.76;40.13;101170.72;5060474;28;20060;-70
2022/09/10 10:35:01;;;;;;;9.77;5.70;;;;;;;29.15;41.66;101181.28;5060867;28;20035;-70
2022/09/10 10:37:39;;;;;;;8.10;5.75;;;;;;;28.77;41.01;101178.13;5068765;28;20028;-72
2022/09/10 10:40:29;;;;;;;7.20;3.95;;;;;;;28.91;41.57;101185.88;5059788;28;20024;-72
2022/09/10 10:43:03;;;;;;;5.30;4.55;;;;;;;29.22;41.47;101177.97;5061834;28;20086;-72
2022/09/10 10:45:39;;;;;;;7.40;5.05;;;;;;;30.46;39.33;101191.69;5053096;28;20074;-72
2022/09/10 10:48:15;;;;;;;10.27;5.85;;;;;;;29.15;40.88;101192.91;5053925;28;20048;-72
2022/09/10 10:50:43;;;;;;;7.53;5.28;;;;;;;29.61;39.72;101189.06;5042919;28;20024;-72
2022/09/10 10:53:50;;;;;;;8.57;5.47;;;;;;;30.19;39.96;101197.66;5036346;28;20033;-71
2022/09/10 10:56:36;;;;;;;6.70;5.70;;;;;;;29.38;41.17;101209.00;5014059;28;20044;-72
2022/09/10 10:59:10;;;;;;;7.53;6.05;;;;;;;30.02;38.99;101205.38;5043666;28;20111;-72
2022/09/10 11:01:46;;;;;;;7.88;6.15;;;;;;;29.81;39.70;101194.56;5063624;28;20032;-71
2022/09/10 11:04:15;;;;;;;7.90;5.22;;;;;;;30.19;39.71;101200.34;5038233;28;20091;-72
2022/09/10 11:06:46;;;;;;;7.88;5.40;;;;;;;29.94;39.56;101206.03;5037472;28;20144;-72
2022/09/10 11:09:22;;;;;;;5.05;4.50;;;;;;;31.33;37.13;101208.19;5071193;28;20028;-70
2022/09/10 11:12:10;;;;;;;6.45;5.53;;;;;;;31.32;37.13;101211.88;5049303;28;20032;-71
2022/09/10 11:14:47;;;;;;;8.52;6.43;;;;;;;29.85;40.12;101217.59;5033145;28;20108;-70
2022/09/10 11:17:46;;;;;;;7.43;6.63;;;;;;;29.64;39.56;101219.41;5053658;28;20067;-71
2022/09/10 11:20:31;;;;;;;9.48;5.75;;;;;;;30.21;39.14;101212.69;5036382;28;20036;-71
2022/09/10 11:22:56;;;;;;;4.07;3.75;;;;;;;30.00;37.90;101219.94;5062658;28;20476;-72
2022/09/10 11:25:29;;;;;;;6.93;4.10;;;;;;;30.40;38.03;101211.06;5053527;28;20032;-71
2022/09/10 11:28:03;;;;;;;7.55;3.38;;;;;;;32.21;34.99;101205.38;5065962;28;20036;-72
2022/09/10 11:30:32;;;;;;;5.80;3.60;;;;;;;30.87;37.38;101222.19;5037491;28;20371;-71